createdAt,value
2018-09-29T00:01:43.493Z,102490.00
2018-09-29T00:03:46.833Z,102489.00
2018-09-29T00:05:49.856Z,102485.00
2018-09-29T00:07:54.593Z,102482.00
2018-09-29T00:09:57.614Z,102480.00
2018-09-29T00:12:00.700Z,102481.00
2018-09-29T00:14:04.006Z,102483.00
2018-09-29T00:16:07.890Z,102486.00
2018-09-29T00:18:10.918Z,102479.00
2018-09-29T00:20:13.956Z,102486.00
2018-09-29T00:22:16.944Z,102488.00
2018-09-29T00:24:19.961Z,102489.00
2018-09-29T00:26:24.663Z,102493.00
2018-09-29T00:28:27.625Z,102498.00
2018-09-29T00:30:30.975Z,102500.00
2018-09-29T00:32:33.954Z,102504.00
2018-09-29T00:34:36.984Z,102504.00
2018-09-29T00:36:40.038Z,102509.00
2018-09-29T00:38:43.058Z,102500.00
2018-09-29T00:40:46.069Z,102506.00
2018-09-29T00:42:49.072Z,102510.00
2018-09-29T00:44:53.452Z,102510.00
2018-09-29T00:46:56.416Z,102508.00
2018-09-29T00:48:59.785Z,102502.00
2018-09-29T00:51:02.853Z,102505.00
2018-09-29T00:53:05.907Z,102507.00
2018-09-29T00:55:09.132Z,102507.00
2018-09-29T00:57:12.169Z,102512.00
2018-09-29T00:59:15.200Z,102513.00
2018-09-29T01:01:18.239Z,102515.00
2018-09-29T01:03:22.637Z,102517.00
2018-09-29T01:05:25.802Z,102518.00
2018-09-29T01:07:28.807Z,102518.00
2018-09-29T01:09:31.800Z,102517.00
2018-09-29T01:11:34.831Z,102515.00
2018-09-29T01:13:37.853Z,102520.00
2018-09-29T01:15:40.900Z,102518.00
2018-09-29T01:17:43.904Z,102520.00
2018-09-29T01:19:46.911Z,102519.00
2018-09-29T01:21:49.947Z,102521.00
2018-09-29T01:23:54.594Z,102521.00
2018-09-29T01:25:57.642Z,102526.00
2018-09-29T01:28:00.788Z,102525.00
2018-09-29T01:30:03.875Z,102520.00
2018-09-29T01:32:06.838Z,102521.00
2018-09-29T01:34:09.956Z,102514.00
2018-09-29T01:36:12.941Z,102522.00
2018-09-29T01:38:15.964Z,102516.00
2018-09-29T01:40:19.000Z,102522.00
2018-09-29T01:42:23.437Z,102516.00
2018-09-29T01:44:26.653Z,102516.00
2018-09-29T01:46:29.660Z,102513.00
2018-09-29T01:48:32.656Z,102511.00
2018-09-29T01:50:35.675Z,102510.00
2018-09-29T01:52:38.684Z,102513.00
2018-09-29T01:54:41.730Z,102519.00
2018-09-29T01:56:44.737Z,102519.00
2018-09-29T01:58:47.709Z,102517.00
2018-09-29T02:00:52.251Z,102519.00
2018-09-29T02:02:55.341Z,102521.00
2018-09-29T02:04:58.420Z,102527.00
2018-09-29T02:07:01.448Z,102531.00
2018-09-29T02:09:05.697Z,102530.00
2018-09-29T02:11:08.733Z,102536.00
2018-09-29T02:13:11.792Z,102541.00
2018-09-29T02:15:14.753Z,102546.00
2018-09-29T02:17:17.853Z,102554.00
2018-09-29T02:19:22.646Z,102542.00
2018-09-29T02:21:25.656Z,102531.00
2018-09-29T02:23:29.029Z,102534.00
2018-09-29T02:25:32.077Z,102538.00
2018-09-29T02:27:35.056Z,102535.00
2018-09-29T02:29:38.295Z,102533.00
2018-09-29T02:31:41.305Z,102537.00
2018-09-29T02:33:44.324Z,102538.00
2018-09-29T02:35:47.381Z,102537.00
2018-09-29T02:37:50.409Z,102538.00
2018-09-29T02:39:53.473Z,102542.00
2018-09-29T02:41:56.506Z,102546.00
2018-09-29T02:43:59.548Z,102542.00
2018-09-29T02:46:02.604Z,102547.00
2018-09-29T02:48:05.717Z,102548.00
2018-09-29T02:50:08.805Z,102547.00
2018-09-29T02:52:11.831Z,102550.00
2018-09-29T02:54:14.851Z,102545.00
2018-09-29T02:56:17.861Z,102551.00
2018-09-29T02:58:22.209Z,102549.00
2018-09-29T03:00:25.474Z,102551.00
2018-09-29T03:02:28.524Z,102546.00
2018-09-29T03:04:31.518Z,102549.00
2018-09-29T03:06:34.545Z,102560.00
2018-09-29T03:08:37.619Z,102558.00
2018-09-29T03:10:40.672Z,102562.00
2018-09-29T03:12:43.788Z,102567.00
2018-09-29T03:14:46.815Z,102570.00
2018-09-29T03:16:49.853Z,102571.00
2018-09-29T03:18:54.642Z,102570.00
2018-09-29T03:20:57.653Z,102569.00
2018-09-29T03:23:00.710Z,102574.00
2018-09-29T03:25:03.859Z,102577.00
2018-09-29T03:27:06.961Z,102573.00
2018-09-29T03:29:09.982Z,102576.00
2018-09-29T03:31:12.986Z,102577.00
2018-09-29T03:33:16.007Z,102579.00
2018-09-29T03:35:19.019Z,102586.00
2018-09-29T03:37:22.742Z,102584.00
2018-09-29T03:39:25.790Z,102588.00
2018-09-29T03:41:28.789Z,102585.00
2018-09-29T03:43:31.810Z,102587.00
2018-09-29T03:45:34.796Z,102590.00
2018-09-29T03:47:37.833Z,102586.00
2018-09-29T03:49:40.901Z,102589.00
2018-09-29T03:51:43.916Z,102590.00
2018-09-29T03:53:46.926Z,102596.00
2018-09-29T03:55:49.953Z,102594.00
2018-09-29T03:57:54.252Z,102594.00
2018-09-29T03:59:57.305Z,102590.00
2018-09-29T04:02:00.353Z,102591.00
2018-09-29T04:04:03.445Z,102585.00
2018-09-29T04:06:06.510Z,102586.00
2018-09-29T04:08:09.532Z,102587.00
2018-09-29T04:10:12.908Z,102593.00
2018-09-29T04:12:15.987Z,102597.00
2018-09-29T04:14:19.025Z,102605.00
2018-09-29T04:16:23.626Z,102604.00
2018-09-29T04:18:26.608Z,102605.00
2018-09-29T04:20:29.618Z,102609.00
2018-09-29T04:22:32.680Z,102608.00
2018-09-29T04:24:35.699Z,102613.00
2018-09-29T04:26:38.727Z,102616.00
2018-09-29T04:28:41.759Z,102618.00
2018-09-29T04:30:44.761Z,102618.00
2018-09-29T04:32:47.819Z,102626.00
2018-09-29T04:34:52.680Z,102626.00
2018-09-29T04:36:55.724Z,102629.00
2018-09-29T04:38:58.960Z,102628.00
2018-09-29T04:41:01.987Z,102630.00
2018-09-29T04:43:05.165Z,102632.00
2018-09-29T04:45:08.260Z,102629.00
2018-09-29T04:47:11.346Z,102635.00
2018-09-29T04:49:14.460Z,102640.00
2018-09-29T04:51:17.698Z,102647.00
2018-09-29T04:53:22.136Z,102647.00
2018-09-29T04:55:25.160Z,102636.00
2018-09-29T04:57:28.303Z,102642.00
2018-09-29T04:59:31.273Z,102644.00
2018-09-29T05:01:34.300Z,102641.00
2018-09-29T05:03:37.676Z,102641.00
2018-09-29T05:05:40.761Z,102641.00
2018-09-29T05:07:43.799Z,102647.00
2018-09-29T05:09:46.870Z,102649.00
2018-09-29T05:11:49.919Z,102652.00
2018-09-29T05:13:54.849Z,102651.00
2018-09-29T05:15:58.221Z,102661.00
2018-09-29T05:18:01.248Z,102662.00
2018-09-29T05:20:04.298Z,102659.00
2018-09-29T05:22:07.636Z,102659.00
2018-09-29T05:24:10.648Z,102654.00
2018-09-29T05:26:13.623Z,102659.00
2018-09-29T05:28:16.702Z,102664.00
2018-09-29T05:30:19.715Z,102666.00
2018-09-29T05:32:24.296Z,102663.00
2018-09-29T05:34:27.322Z,102660.00
2018-09-29T05:36:30.374Z,102659.00
2018-09-29T05:38:33.485Z,102654.00
2018-09-29T05:40:36.595Z,102650.00
2018-09-29T05:42:39.618Z,102648.00
2018-09-29T05:44:42.736Z,102644.00
2018-09-29T05:46:45.794Z,102650.00
2018-09-29T05:48:48.824Z,102658.00
2018-09-29T05:50:54.004Z,102658.00
2018-09-29T05:52:56.973Z,102659.00
2018-09-29T05:54:59.969Z,102660.00
2018-09-29T05:57:03.226Z,102665.00
2018-09-29T05:59:06.282Z,102669.00
2018-09-29T06:01:09.366Z,102667.00
2018-09-29T06:03:12.459Z,102666.00
2018-09-29T06:05:15.519Z,102662.00
2018-09-29T06:07:18.613Z,102668.00
2018-09-29T06:09:22.951Z,102667.00
2018-09-29T06:11:26.018Z,102677.00
2018-09-29T06:13:29.003Z,102675.00
2018-09-29T06:15:32.122Z,102686.00
2018-09-29T06:17:35.172Z,102682.00
2018-09-29T06:19:38.198Z,102684.00
2018-09-29T06:21:41.541Z,102688.00
2018-09-29T06:23:44.541Z,102691.00
2018-09-29T06:25:47.549Z,102688.00
2018-09-29T06:27:52.019Z,102683.00
2018-09-29T06:29:55.050Z,102684.00
2018-09-29T06:31:58.139Z,102679.00
2018-09-29T06:34:01.203Z,102679.00
2018-09-29T06:36:04.319Z,102682.00
2018-09-29T06:38:07.384Z,102685.00
2018-09-29T06:40:10.397Z,102687.00
2018-09-29T06:42:13.477Z,102691.00
2018-09-29T06:44:16.532Z,102697.00
2018-09-29T06:46:19.559Z,102699.00
2018-09-29T06:48:24.289Z,102703.00
2018-09-29T06:50:28.025Z,102704.00
2018-09-29T06:52:31.060Z,102698.00
2018-09-29T06:54:34.163Z,102700.00
2018-09-29T06:56:37.231Z,102699.00
2018-09-29T06:58:40.315Z,102703.00
2018-09-29T07:00:43.385Z,102707.00
2018-09-29T07:02:46.525Z,102707.00
2018-09-29T07:04:49.572Z,102704.00
2018-09-29T07:06:53.899Z,102705.00
2018-09-29T07:08:56.908Z,102710.00
2018-09-29T07:10:59.955Z,102712.00
2018-09-29T07:13:02.997Z,102710.00
2018-09-29T07:15:07.250Z,102714.00
2018-09-29T07:17:10.282Z,102710.00
2018-09-29T07:19:13.353Z,102705.00
2018-09-29T07:21:16.374Z,102701.00
2018-09-29T07:23:19.409Z,102704.00
2018-09-29T07:25:24.384Z,102701.00
2018-09-29T07:27:27.345Z,102707.00
2018-09-29T07:29:30.345Z,102703.00
2018-09-29T07:31:33.415Z,102706.00
2018-09-29T07:33:36.407Z,102705.00
2018-09-29T07:35:39.495Z,102703.00
2018-09-29T07:37:42.526Z,102703.00
2018-09-29T07:39:45.545Z,102703.00
2018-09-29T07:41:48.593Z,102706.00
2018-09-29T07:43:53.096Z,102705.00
2018-09-29T07:45:56.134Z,102707.00
2018-09-29T07:47:59.182Z,102710.00
2018-09-29T07:50:02.257Z,102700.00
2018-09-29T07:52:05.417Z,102706.00
2018-09-29T07:54:08.473Z,102702.00
2018-09-29T07:56:11.540Z,102701.00
2018-09-29T07:58:14.545Z,102700.00
2018-09-29T08:00:17.593Z,102708.00
2018-09-29T08:02:22.172Z,102704.00
2018-09-29T08:04:25.401Z,102706.00
2018-09-29T08:06:28.622Z,102702.00
2018-09-29T08:08:31.713Z,102699.00
2018-09-29T08:10:34.950Z,102703.00
2018-09-29T08:12:38.064Z,102706.00
2018-09-29T08:14:41.105Z,102708.00
2018-09-29T08:16:44.150Z,102701.00
2018-09-29T08:18:47.157Z,102700.00
2018-09-29T08:20:50.176Z,102703.00
2018-09-29T08:22:54.608Z,102702.00
2018-09-29T08:24:57.632Z,102694.00
2018-09-29T08:27:00.649Z,102693.00
2018-09-29T08:29:03.679Z,102692.00
2018-09-29T08:31:06.833Z,102698.00
2018-09-29T08:33:09.826Z,102690.00
2018-09-29T08:35:12.937Z,102697.00
2018-09-29T08:37:15.919Z,102695.00
2018-09-29T08:39:18.905Z,102694.00
2018-09-29T08:41:24.428Z,102685.00
2018-09-29T08:43:27.580Z,102686.00
2018-09-29T08:45:30.616Z,102685.00
2018-09-29T08:47:33.990Z,102685.00
2018-09-29T08:49:36.990Z,102678.00
2018-09-29T08:51:39.984Z,102687.00
2018-09-29T08:53:43.074Z,102685.00
2018-09-29T08:55:46.121Z,102677.00
2018-09-29T08:57:49.152Z,102684.00
2018-09-29T08:59:53.509Z,102682.00
2018-09-29T09:01:56.549Z,102678.00
2018-09-29T09:03:59.635Z,102687.00
2018-09-29T09:06:02.595Z,102688.00
2018-09-29T09:08:06.047Z,102680.00
2018-09-29T09:10:09.123Z,102689.00
2018-09-29T09:12:12.200Z,102690.00
2018-09-29T09:14:15.444Z,102691.00
2018-09-29T09:16:18.510Z,102690.00
2018-09-29T09:18:22.873Z,102694.00
2018-09-29T09:20:26.263Z,102692.00
2018-09-29T09:22:29.256Z,102688.00
2018-09-29T09:24:32.285Z,102692.00
2018-09-29T09:26:35.580Z,102686.00
2018-09-29T09:28:38.649Z,102684.00
2018-09-29T09:30:41.837Z,102682.00
2018-09-29T09:32:45.145Z,102682.00
2018-09-29T09:34:48.202Z,102679.00
2018-09-29T09:36:52.653Z,102682.00
2018-09-29T09:38:55.684Z,102675.00
2018-09-29T09:40:58.710Z,102680.00
2018-09-29T09:43:01.801Z,102673.00
2018-09-29T09:45:05.885Z,102672.00
2018-09-29T09:47:08.905Z,102676.00
2018-09-29T09:49:11.917Z,102673.00
2018-09-29T09:51:15.299Z,102670.00
2018-09-29T09:53:18.313Z,102666.00
2018-09-29T09:55:23.229Z,102665.00
2018-09-29T09:57:26.317Z,102662.00
2018-09-29T09:59:29.665Z,102665.00
2018-09-29T10:01:35.320Z,102662.00
2018-09-29T10:03:38.323Z,102658.00
2018-09-29T10:05:41.569Z,102658.00
2018-09-29T10:07:44.589Z,102660.00
2018-09-29T10:09:47.645Z,102652.00
2018-09-29T10:11:52.932Z,102657.00
2018-09-29T10:13:55.938Z,102652.00
2018-09-29T10:15:58.937Z,102660.00
2018-09-29T10:18:02.401Z,102659.00
2018-09-29T10:20:05.962Z,102655.00
2018-09-29T10:22:08.972Z,102644.00
2018-09-29T10:24:12.021Z,102644.00
2018-09-29T10:26:15.016Z,102652.00
2018-09-29T10:28:18.006Z,102652.00
2018-09-29T10:30:21.316Z,102652.00
2018-09-29T10:32:24.356Z,102649.00
2018-09-29T10:34:27.358Z,102643.00
2018-09-29T10:36:30.793Z,102640.00
2018-09-29T10:38:33.859Z,102638.00
2018-09-29T10:40:36.995Z,102640.00
2018-09-29T10:42:40.130Z,102636.00
2018-09-29T10:44:43.534Z,102633.00
2018-09-29T10:46:46.552Z,102628.00
2018-09-29T10:48:49.654Z,102621.00
2018-09-29T10:50:54.461Z,102622.00
2018-09-29T10:52:57.588Z,102619.00
2018-09-29T10:55:00.622Z,102619.00
2018-09-29T10:57:03.998Z,102614.00
2018-09-29T10:59:07.427Z,102621.00
2018-09-29T11:01:10.514Z,102617.00
2018-09-29T11:03:13.913Z,102613.00
2018-09-29T11:05:16.979Z,102609.00
2018-09-29T11:07:20.069Z,102604.00
2018-09-29T11:09:24.470Z,102601.00
2018-09-29T11:11:27.504Z,102595.00
2018-09-29T11:13:30.549Z,102588.00
2018-09-29T11:15:33.637Z,102585.00
2018-09-29T11:17:36.662Z,102581.00
2018-09-29T11:19:39.893Z,102579.00
2018-09-29T11:21:42.920Z,102576.00
2018-09-29T11:23:45.918Z,102573.00
2018-09-29T11:25:49.266Z,102569.00
2018-09-29T11:27:53.624Z,102569.00
2018-09-29T11:29:56.605Z,102569.00
2018-09-29T11:32:00.082Z,102564.00
2018-09-29T11:34:03.135Z,102559.00
2018-09-29T11:36:06.179Z,102556.00
2018-09-29T11:38:09.324Z,102552.00
2018-09-29T11:40:12.693Z,102550.00
2018-09-29T11:42:15.682Z,102547.00
2018-09-29T11:44:18.740Z,102540.00
2018-09-29T11:46:23.455Z,102534.00
2018-09-29T11:48:26.479Z,102542.00
2018-09-29T11:50:29.498Z,102541.00
2018-09-29T11:52:32.844Z,102544.00
2018-09-29T11:54:35.879Z,102543.00
2018-09-29T11:56:38.926Z,102541.00
2018-09-29T11:58:42.028Z,102537.00
2018-09-29T12:00:45.121Z,102530.00
2018-09-29T12:02:48.110Z,102518.00
2018-09-29T12:04:52.867Z,102518.00
2018-09-29T12:06:55.996Z,102518.00
2018-09-29T12:08:59.053Z,102518.00
2018-09-29T12:11:02.089Z,102514.00
2018-09-29T12:13:05.178Z,102513.00
2018-09-29T12:15:08.242Z,102515.00
2018-09-29T12:17:11.248Z,102509.00
2018-09-29T12:19:14.350Z,102503.00
2018-09-29T12:21:17.373Z,102499.00
2018-09-29T12:23:20.427Z,102497.00
2018-09-29T12:25:23.480Z,102495.00
2018-09-29T12:27:26.498Z,102488.00
2018-09-29T12:29:29.589Z,102486.00
2018-09-29T12:31:32.924Z,102481.00
2018-09-29T12:33:35.999Z,102479.00
2018-09-29T12:35:39.051Z,102472.00
2018-09-29T12:37:42.275Z,102456.00
2018-09-29T12:39:45.281Z,102469.00
2018-09-29T12:41:48.314Z,102465.00
2018-09-29T12:43:52.965Z,102459.00
2018-09-29T12:45:56.033Z,102453.00
2018-09-29T12:47:59.074Z,102455.00
2018-09-29T12:50:02.197Z,102451.00
2018-09-29T12:52:05.280Z,102454.00
2018-09-29T12:54:08.310Z,102449.00
2018-09-29T12:56:11.324Z,102447.00
2018-09-29T12:58:14.344Z,102447.00
2018-09-29T13:00:17.424Z,102446.00
2018-09-29T13:02:20.476Z,102446.00
2018-09-29T13:04:24.590Z,102440.00
2018-09-29T13:06:27.601Z,102441.00
2018-09-29T13:08:30.633Z,102439.00
2018-09-29T13:10:33.668Z,102430.00
2018-09-29T13:12:36.744Z,102430.00
2018-09-29T13:14:39.800Z,102421.00
2018-09-29T13:16:42.899Z,102420.00
2018-09-29T13:18:45.967Z,102415.00
2018-09-29T13:20:49.044Z,102422.00
2018-09-29T13:22:53.755Z,102421.00
2018-09-29T13:24:56.785Z,102412.00
2018-09-29T13:26:59.877Z,102409.00
2018-09-29T13:29:02.925Z,102410.00
2018-09-29T13:31:06.243Z,102410.00
2018-09-29T13:33:09.543Z,102415.00
2018-09-29T13:35:12.625Z,102412.00
2018-09-29T13:37:15.734Z,102413.00
2018-09-29T13:39:18.820Z,102408.00
2018-09-29T13:41:23.612Z,102405.00
2018-09-29T13:43:26.650Z,102403.00
2018-09-29T13:45:29.692Z,102398.00
2018-09-29T13:47:32.701Z,102393.00
2018-09-29T13:49:35.717Z,102395.00
2018-09-29T13:51:38.767Z,102384.00
2018-09-29T13:53:41.807Z,102379.00
2018-09-29T13:55:44.834Z,102388.00
2018-09-29T13:57:47.905Z,102381.00
2018-09-29T13:59:52.413Z,102377.00
2018-09-29T14:01:55.521Z,102377.00
2018-09-29T14:03:58.654Z,102380.00
2018-09-29T14:06:01.712Z,102368.00
2018-09-29T14:08:05.115Z,102370.00
2018-09-29T14:10:08.204Z,102371.00
2018-09-29T14:12:11.234Z,102373.00
2018-09-29T14:14:14.350Z,102374.00
2018-09-29T14:16:17.423Z,102367.00
2018-09-29T14:18:20.461Z,102359.00
2018-09-29T14:20:24.426Z,102362.00
2018-09-29T14:22:27.505Z,102354.00
2018-09-29T14:24:30.597Z,102342.00
2018-09-29T14:26:33.661Z,102342.00
2018-09-29T14:28:36.659Z,102342.00
2018-09-29T14:30:39.704Z,102332.00
2018-09-29T14:32:42.752Z,102340.00
2018-09-29T14:34:45.745Z,102336.00
2018-09-29T14:36:48.764Z,102335.00
2018-09-29T14:38:53.609Z,102328.00
2018-09-29T14:40:56.602Z,102326.00
2018-09-29T14:42:59.577Z,102312.00
2018-09-29T14:45:02.819Z,102315.00
2018-09-29T14:47:05.926Z,102309.00
2018-09-29T14:49:09.010Z,102308.00
2018-09-29T14:51:12.042Z,102306.00
2018-09-29T14:53:15.069Z,102308.00
2018-09-29T14:55:18.106Z,102297.00
2018-09-29T14:57:21.369Z,102302.00
2018-09-29T14:59:24.573Z,102299.00
2018-09-29T15:01:27.636Z,102296.00
2018-09-29T15:03:30.637Z,102290.00
2018-09-29T15:05:33.749Z,102286.00
2018-09-29T15:07:36.809Z,102281.00
2018-09-29T15:09:39.838Z,102276.00
2018-09-29T15:11:42.873Z,102276.00
2018-09-29T15:13:45.933Z,102276.00
2018-09-29T15:15:49.161Z,102277.00
2018-09-29T15:17:54.211Z,102294.00
2018-09-29T15:19:57.604Z,102283.00
2018-09-29T15:22:00.689Z,102283.00
2018-09-29T15:24:03.724Z,102280.00
2018-09-29T15:26:07.253Z,102281.00
2018-09-29T15:28:10.307Z,102280.00
2018-09-29T15:30:13.880Z,102279.00
2018-09-29T15:32:31.553Z,102280.00
2018-09-29T15:34:46.787Z,102272.00
2018-09-29T15:36:50.466Z,102266.00
2018-09-29T15:38:53.913Z,102279.00
2018-09-29T15:40:57.456Z,102274.00
2018-09-29T15:43:01.203Z,102260.00
2018-09-29T15:45:06.176Z,102254.00
2018-09-29T15:47:10.105Z,102256.00
2018-09-29T15:49:13.335Z,102250.00
2018-09-29T15:51:16.352Z,102248.00
2018-09-29T15:53:19.911Z,102247.00
2018-09-29T15:55:24.870Z,102247.00
2018-09-29T15:57:28.393Z,102247.00
2018-09-29T15:59:31.629Z,102244.00
2018-09-29T16:01:34.803Z,102247.00
2018-09-29T16:03:37.765Z,102254.00
2018-09-29T16:05:41.049Z,102257.00
2018-09-29T16:07:44.075Z,102260.00
2018-09-29T16:09:47.084Z,102260.00
2018-09-29T16:11:50.329Z,102260.00
2018-09-29T16:13:53.726Z,102269.00
2018-09-29T16:15:56.713Z,102270.00
2018-09-29T16:18:00.592Z,102273.00
2018-09-29T16:20:03.601Z,102268.00
2018-09-29T16:22:06.654Z,102272.00
2018-09-29T16:24:09.677Z,102275.00
2018-09-29T16:26:12.637Z,102271.00
2018-09-29T16:28:15.609Z,102272.00
2018-09-29T16:30:19.104Z,102281.00
2018-09-29T16:32:23.936Z,102279.00
2018-09-29T16:34:27.013Z,102281.00
2018-09-29T16:36:30.563Z,102284.00
2018-09-29T16:38:33.641Z,102282.00
2018-09-29T16:40:36.627Z,102276.00
2018-09-29T16:42:40.005Z,102282.00
2018-09-29T16:44:43.290Z,102284.00
2018-09-29T16:46:46.533Z,102290.00
2018-09-29T16:48:49.593Z,102288.00
2018-09-29T16:50:54.008Z,102287.00
2018-09-29T16:52:57.091Z,102287.00
2018-09-29T16:55:00.308Z,102291.00
2018-09-29T16:57:03.348Z,102289.00
2018-09-29T16:59:06.809Z,102292.00
2018-09-29T17:01:09.818Z,102300.00
2018-09-29T17:03:12.845Z,102295.00
2018-09-29T17:05:15.916Z,102299.00
2018-09-29T17:07:18.919Z,102293.00
2018-09-29T17:09:23.465Z,102294.00
2018-09-29T17:11:26.495Z,102305.00
2018-09-29T17:13:29.561Z,102297.00
2018-09-29T17:15:32.600Z,102305.00
2018-09-29T17:17:35.678Z,102304.00
2018-09-29T17:19:38.743Z,102310.00
2018-09-29T17:21:41.852Z,102309.00
2018-09-29T17:23:44.881Z,102308.00
2018-09-29T17:25:48.217Z,102303.00
2018-09-29T17:27:52.873Z,102301.00
2018-09-29T17:29:55.880Z,102309.00
2018-09-29T17:31:59.043Z,102308.00
2018-09-29T17:34:01.950Z,102307.00
2018-09-29T17:36:04.977Z,102313.00
2018-09-29T17:38:08.003Z,102309.00
2018-09-29T17:40:11.066Z,102318.00
2018-09-29T17:42:14.101Z,102317.00
2018-09-29T17:44:17.462Z,102314.00
2018-09-29T17:46:21.773Z,102310.00
2018-09-29T17:48:24.804Z,102309.00
2018-09-29T17:50:27.845Z,102308.00
2018-09-29T17:52:30.810Z,102311.00
2018-09-29T17:54:33.784Z,102316.00
2018-09-29T17:56:36.796Z,102311.00
2018-09-29T17:58:39.832Z,102313.00
2018-09-29T18:00:42.954Z,102307.00
2018-09-29T18:02:45.973Z,102305.00
2018-09-29T18:04:49.000Z,102302.00
2018-09-29T18:06:53.112Z,102301.00
2018-09-29T18:08:56.050Z,102303.00
2018-09-29T18:10:59.031Z,102307.00
2018-09-29T18:13:01.987Z,102308.00
2018-09-29T18:15:05.054Z,102306.00
2018-09-29T18:17:08.054Z,102303.00
2018-09-29T18:19:11.453Z,102307.00
2018-09-29T18:21:14.476Z,102303.00
2018-09-29T18:23:17.474Z,102304.00
2018-09-29T18:25:22.665Z,102308.00
2018-09-29T18:27:25.752Z,102309.00
2018-09-29T18:29:29.521Z,102312.00
2018-09-29T18:31:34.543Z,102309.00
2018-09-29T18:33:37.512Z,102312.00
2018-09-29T18:35:40.534Z,102305.00
2018-09-29T18:37:43.820Z,102308.00
2018-09-29T18:39:46.798Z,102306.00
2018-09-29T18:41:49.794Z,102313.00
2018-09-29T18:43:54.521Z,102308.00
2018-09-29T18:45:57.501Z,102308.00
2018-09-29T18:48:01.932Z,102304.00
2018-09-29T18:50:05.012Z,102303.00
2018-09-29T18:52:08.477Z,102301.00
2018-09-29T18:54:11.525Z,102307.00
2018-09-29T18:56:14.542Z,102306.00
2018-09-29T18:58:17.543Z,102306.00
2018-09-29T19:00:22.097Z,102312.00
2018-09-29T19:02:25.160Z,102312.00
2018-09-29T19:04:28.242Z,102313.00
2018-09-29T19:06:31.269Z,102309.00
2018-09-29T19:08:34.254Z,102317.00
2018-09-29T19:10:37.271Z,102312.00
2018-09-29T19:12:40.707Z,102308.00
2018-09-29T19:14:43.704Z,102308.00
2018-09-29T19:16:46.716Z,102304.00
2018-09-29T19:18:49.772Z,102312.00
2018-09-29T19:20:54.500Z,102310.00
2018-09-29T19:22:57.653Z,102306.00
2018-09-29T19:25:00.648Z,102306.00
2018-09-29T19:27:03.702Z,102305.00
2018-09-29T19:29:06.971Z,102309.00
2018-09-29T19:31:10.087Z,102307.00
2018-09-29T19:33:13.092Z,102306.00
2018-09-29T19:35:16.148Z,102299.00
2018-09-29T19:37:19.229Z,102296.00
2018-09-29T19:39:24.109Z,102292.00
2018-09-29T19:41:27.227Z,102287.00
2018-09-29T19:43:30.437Z,102285.00
2018-09-29T19:45:33.586Z,102283.00
2018-09-29T19:47:36.807Z,102284.00
2018-09-29T19:49:39.943Z,102281.00
2018-09-29T19:51:43.138Z,102274.00
2018-09-29T19:53:46.173Z,102278.00
2018-09-29T19:55:49.349Z,102271.00
2018-09-29T19:57:53.712Z,102269.00
2018-09-29T19:59:56.718Z,102277.00
2018-09-29T20:02:00.037Z,102272.00
2018-09-29T20:04:03.408Z,102267.00
2018-09-29T20:06:06.468Z,102264.00
2018-09-29T20:08:09.457Z,102262.00
2018-09-29T20:10:12.529Z,102261.00
2018-09-29T20:12:15.468Z,102253.00
2018-09-29T20:14:18.561Z,102257.00
2018-09-29T20:16:23.108Z,102255.00
2018-09-29T20:18:26.411Z,102252.00
2018-09-29T20:20:29.441Z,102251.00
2018-09-29T20:22:32.440Z,102246.00
2018-09-29T20:24:35.429Z,102246.00
2018-09-29T20:26:38.388Z,102244.00
2018-09-29T20:28:41.478Z,102246.00
2018-09-29T20:30:44.517Z,102245.00
2018-09-29T20:32:47.583Z,102248.00
2018-09-29T20:34:51.220Z,102243.00
2018-09-29T20:36:54.397Z,102243.00
2018-09-29T20:38:57.424Z,102249.00
2018-09-29T20:41:00.457Z,102243.00
2018-09-29T20:43:03.472Z,102240.00
2018-09-29T20:45:06.577Z,102243.00
2018-09-29T20:47:09.563Z,102241.00
2018-09-29T20:49:12.594Z,102244.00
2018-09-29T20:51:15.572Z,102235.00
2018-09-29T20:53:18.597Z,102236.00
2018-09-29T20:55:22.917Z,102236.00
2018-09-29T20:57:25.945Z,102231.00
2018-09-29T20:59:28.955Z,102226.00
2018-09-29T21:01:32.049Z,102231.00
2018-09-29T21:03:34.968Z,102219.00
2018-09-29T21:05:37.927Z,102224.00
2018-09-29T21:07:40.931Z,102219.00
2018-09-29T21:09:43.936Z,102223.00
2018-09-29T21:11:46.900Z,102217.00
2018-09-29T21:13:49.883Z,102216.00
2018-09-29T21:15:54.612Z,102220.00
2018-09-29T21:17:57.599Z,102223.00
2018-09-29T21:20:00.573Z,102226.00
2018-09-29T21:22:03.627Z,102222.00
2018-09-29T21:24:06.685Z,102215.00
2018-09-29T21:26:09.681Z,102214.00
2018-09-29T21:28:12.688Z,102212.00
2018-09-29T21:30:15.657Z,102211.00
2018-09-29T21:32:18.671Z,102205.00
2018-09-29T21:34:22.957Z,102204.00
2018-09-29T21:36:26.011Z,102201.00
2018-09-29T21:38:28.988Z,102198.00
2018-09-29T21:40:32.053Z,102195.00
2018-09-29T21:42:35.424Z,102193.00
2018-09-29T21:44:38.397Z,102194.00
2018-09-29T21:46:41.384Z,102193.00
2018-09-29T21:48:44.390Z,102186.00
2018-09-29T21:50:47.344Z,102184.00
2018-09-29T21:52:50.276Z,102178.00
2018-09-29T21:54:54.405Z,102180.00
2018-09-29T21:56:57.384Z,102174.00
2018-09-29T21:59:00.349Z,102175.00
2018-09-29T22:01:09.114Z,102165.00
2018-09-29T22:03:13.852Z,102167.00
2018-09-29T22:05:16.852Z,102165.00
2018-09-29T22:07:19.981Z,102159.00
2018-09-29T22:09:24.628Z,102161.00
2018-09-29T22:11:27.712Z,102166.00
2018-09-29T22:13:30.745Z,102159.00
2018-09-29T22:15:33.704Z,102158.00
2018-09-29T22:17:36.701Z,102155.00
2018-09-29T22:19:39.701Z,102150.00
2018-09-29T22:21:42.763Z,102150.00
2018-09-29T22:23:45.712Z,102156.00
2018-09-29T22:25:48.694Z,102148.00
2018-09-29T22:27:53.668Z,102152.00
2018-09-29T22:29:56.624Z,102150.00
2018-09-29T22:31:59.559Z,102146.00
2018-09-29T22:34:02.929Z,102142.00
2018-09-29T22:36:06.088Z,102142.00
2018-09-29T22:38:09.073Z,102138.00
2018-09-29T22:40:12.054Z,102135.00
2018-09-29T22:42:15.040Z,102132.00
2018-09-29T22:44:18.051Z,102130.00
2018-09-29T22:46:23.093Z,102132.00
2018-09-29T22:48:26.150Z,102137.00
2018-09-29T22:50:29.163Z,102138.00
2018-09-29T22:52:32.207Z,102135.00
2018-09-29T22:54:35.236Z,102137.00
2018-09-29T22:56:38.264Z,102135.00
2018-09-29T22:58:41.481Z,102130.00
2018-09-29T23:00:44.512Z,102133.00
2018-09-29T23:02:47.572Z,102126.00
2018-09-29T23:04:51.184Z,102123.00
2018-09-29T23:06:54.214Z,102119.00
2018-09-29T23:08:57.708Z,102119.00
2018-09-29T23:11:00.757Z,102115.00
2018-09-29T23:13:03.816Z,102115.00
2018-09-29T23:15:06.900Z,102109.00
2018-09-29T23:17:09.963Z,102105.00
2018-09-29T23:19:13.167Z,102101.00
2018-09-29T23:21:16.131Z,102100.00
2018-09-29T23:23:19.161Z,102104.00
2018-09-29T23:25:23.468Z,102097.00
2018-09-29T23:27:26.536Z,102100.00